Time;durP1;ratioP1;P1;durP2;ratioP2;P2;SDS_P1;SDS_P2;PMS_P1;PMS_P2;Temp;Humidity;BMP_temperature;BMP_pressure;BME280_temperature;BME280_humidity;BME280_pressure;Samples;Min_cycle;Max_cycle;Signal;HPM_P1;HPM_P2
2021/12/12 00:02:07;;;;;;;;;;;;;;;2.99;95.60;97521.53;5095879;28;19946;-68
2021/12/12 00:04:35;;;;;;;;;;;;;;;3.20;95.21;97519.25;5096068;28;19916;-68
2021/12/12 00:07:04;;;;;;;;;;;;;;;3.20;94.54;97521.84;5096031;28;20015;-68
2021/12/12 00:09:31;;;;;;;;;;;;;;;3.18;94.44;97518.59;5095320;28;20425;-68
2021/12/12 00:11:58;;;;;;;;;;;;;;;3.01;95.41;97515.19;5096255;28;19920;-68
2021/12/12 00:14:25;;;;;;;;;;;;;;;3.20;94.88;97514.06;5095565;28;19946;-69
2021/12/12 00:16:50;;;;;;;;;;;;;;;3.00;95.56;97523.97;5095554;28;19939;-68
2021/12/12 00:19:16;;;;;;;;;;;;;;;3.01;95.84;97522.97;5095587;28;20360;-68
2021/12/12 00:21:44;;;;;;;;;;;;;;;3.20;94.05;97532.22;5095729;28;20278;-68
2021/12/12 00:24:10;;;;;;;;;;;;;;;3.13;93.60;97539.81;5095703;28;19923;-69
2021/12/12 00:26:36;;;;;;;;;;;;;;;3.28;93.69;97545.19;5095443;28;19996;-68
2021/12/12 00:29:02;;;;;;;;;;;;;;;3.26;93.31;97537.56;5094991;28;20364;-68
2021/12/12 00:31:27;;;;;;;;;;;;;;;3.30;92.97;97531.06;5091070;28;19960;-68
2021/12/12 00:33:54;;;;;;;;;;;;;;;3.28;92.49;97532.22;5084806;28;20001;-68
2021/12/12 00:36:20;;;;;;;;;;;;;;;3.18;92.86;97527.19;5076631;28;19916;-68
2021/12/12 00:38:47;;;;;;;;;;;;;;;3.05;93.99;97531.25;5092903;28;19923;-68
2021/12/12 00:41:13;;;;;;;;;;;;;;;3.14;93.03;97525.91;5095467;28;19916;-69
2021/12/12 00:43:41;;;;;;;;;;;;;;;3.15;93.73;97534.47;5095623;28;20363;-68
2021/12/12 00:46:08;;;;;;;;;;;;;;;3.01;94.88;97535.13;5095429;28;19945;-68
2021/12/12 00:48:34;;;;;;;;;;;;;;;3.14;93.52;97544.03;5078886;28;19912;-68
2021/12/12 00:51:01;;;;;;;;;;;;;;;3.20;92.22;97545.97;5093646;28;19920;-68
2021/12/12 00:53:26;;;;;;;;;;;;;;;3.09;91.75;97545.47;5094378;28;19977;-68
2021/12/12 00:55:53;;;;;;;;;;;;;;;3.21;89.50;97557.97;5079282;28;19920;-68
2021/12/12 00:58:18;;;;;;;;;;;;;;;3.25;90.15;97553.25;5092583;28;19923;-68
2021/12/12 01:00:49;;;;;;;;;;;;;;;3.24;90.99;97547.25;5095223;28;19916;-68
2021/12/12 01:03:16;;;;;;;;;;;;;;;3.25;90.74;97566.22;5094931;28;19924;-68
2021/12/12 01:05:43;;;;;;;;;;;;;;;3.19;90.28;97561.66;5093498;28;19990;-69
2021/12/12 01:08:10;;;;;;;;;;;;;;;3.35;88.73;97559.09;5094723;28;19916;-69
2021/12/12 01:10:37;;;;;;;;;;;;;;;3.40;88.54;97556.81;5094215;28;19988;-68
2021/12/12 01:13:04;;;;;;;;;;;;;;;3.27;89.94;97562.50;5095062;28;20050;-68
2021/12/12 01:15:30;;;;;;;;;;;;;;;3.29;89.76;97570.91;5093808;28;19915;-69
2021/12/12 01:17:56;;;;;;;;;;;;;;;3.44;89.05;97578.03;5094562;28;19930;-69
2021/12/12 01:20:25;;;;;;;;;;;;;;;3.46;88.71;97579.47;5094108;28;20014;-68
2021/12/12 01:22:53;;;;;;;;;;;;;;;3.37;88.86;97588.25;5085965;28;19916;-68
2021/12/12 01:25:26;;;;;;;;;;;;;;;3.37;88.58;97582.25;5085224;28;19916;-68
2021/12/12 01:27:51;;;;;;;;;;;;;;;3.34;89.19;97585.97;5094627;28;19916;-69
2021/12/12 01:30:17;;;;;;;;;;;;;;;3.15;89.88;97581.09;5094578;28;19989;-68
2021/12/12 01:32:44;;;;;;;;;;;;;;;3.09;90.36;97576.56;5094139;28;19920;-68
2021/12/12 01:35:15;;;;;;;;;;;;;;;3.27;90.65;97583.22;5094264;28;20296;-68
2021/12/12 01:37:49;;;;;;;;;;;;;;;3.11;90.57;97577.22;5079444;28;20333;-68
2021/12/12 01:40:17;;;;;;;;;;;;;;;3.10;91.26;97570.41;5092612;28;19943;-68
2021/12/12 01:42:48;;;;;;;;;;;;;;;3.25;90.84;97573.97;5094253;28;19916;-68
2021/12/12 01:45:23;;;;;;;;;;;;;;;3.22;90.92;97576.91;5094330;28;19912;-68
2021/12/12 01:47:51;;;;;;;;;;;;;;;3.41;89.90;97573.16;5094209;28;19916;-68
2021/12/12 01:50:20;;;;;;;;;;;;;;;3.45;89.57;97579.66;5093955;28;19967;-68
2021/12/12 01:52:46;;;;;;;;;;;;;;;3.28;90.61;97578.84;5094413;28;19919;-69
2021/12/12 01:55:23;;;;;;;;;;;;;;;3.15;91.89;97575.91;5093701;28;19916;-68
2021/12/12 01:57:49;;;;;;;;;;;;;;;3.18;91.55;97573.81;5093976;28;19912;-68
2021/12/12 02:00:18;;;;;;;;;;;;;;;3.15;91.17;97586.28;5092926;28;19923;-69
2021/12/12 02:02:44;;;;;;;;;;;;;;;3.16;91.75;97585.31;5093423;28;19951;-68
2021/12/12 02:05:12;;;;;;;;;;;;;;;3.14;91.41;97592.41;5093025;28;19966;-68
2021/12/12 02:07:39;;;;;;;;;;;;;;;3.17;91.65;97584.34;5093345;28;19924;-69
2021/12/12 02:10:08;;;;;;;;;;;;;;;3.23;91.93;97592.25;5091560;28;19928;-68
2021/12/12 02:12:34;;;;;;;;;;;;;;;3.10;92.81;97591.13;5093854;28;19923;-68
2021/12/12 02:15:00;;;;;;;;;;;;;;;2.99;93.16;97596.59;5093674;28;19916;-68
2021/12/12 02:17:31;;;;;;;;;;;;;;;3.08;92.46;97598.22;5076800;28;19923;-68
2021/12/12 02:20:21;;;;;;;;;;;;;;;3.14;92.54;97598.41;5093220;28;20377;-68
2021/12/12 02:22:59;;;;;;;;;;;;;;;3.01;93.83;97602.44;5092242;28;19927;-68
2021/12/12 02:36:24;;;;;;;;;;;;;;;3.17;92.06;97618.03;5093624;28;19962;-68
2021/12/12 02:38:52;;;;;;;;;;;;;;;3.24;88.14;97614.59;5093255;28;20357;-69
2021/12/12 02:41:18;;;;;;;;;;;;;;;3.39;87.51;97619.19;5092784;28;20261;-68
2021/12/12 02:43:46;;;;;;;;;;;;;;;3.44;85.69;97606.53;5093258;28;19923;-68
2021/12/12 02:46:16;;;;;;;;;;;;;;;3.27;85.01;97608.31;5093283;28;19966;-68
2021/12/12 02:48:44;;;;;;;;;;;;;;;2.95;87.76;97619.44;5083222;28;19947;-68
2021/12/12 02:51:11;;;;;;;;;;;;;;;3.09;86.81;97610.22;5073369;28;19912;-68
2021/12/12 02:53:38;;;;;;;;;;;;;;;3.07;86.61;97607.78;5083031;28;19973;-68
2021/12/12 02:56:11;;;;;;;;;;;;;;;3.19;85.84;97609.09;5093493;28;19916;-68
2021/12/12 02:58:36;;;;;;;;;;;;;;;3.08;86.87;97617.19;5092715;28;19916;-68
2021/12/12 03:01:19;;;;;;;;;;;;;;;2.96;87.57;97608.09;5093143;28;20280;-68
2021/12/12 03:03:45;;;;;;;;;;;;;;;2.98;85.00;97610.53;5093110;28;19923;-70
2021/12/12 03:06:13;;;;;;;;;;;;;;;2.93;85.33;97611.00;5093422;28;20362;-68
2021/12/12 03:08:39;;;;;;;;;;;;;;;3.05;84.81;97601.97;5092877;28;19980;-68
2021/12/12 03:11:05;;;;;;;;;;;;;;;3.06;85.27;97589.84;5092568;28;19923;-69
2021/12/12 03:13:30;;;;;;;;;;;;;;;3.06;84.68;97592.44;5093278;28;20277;-68
2021/12/12 03:15:56;;;;;;;;;;;;;;;3.14;84.77;97592.41;5095881;28;19939;-68
2021/12/12 03:18:27;;;;;;;;;;;;;;;2.92;86.80;97594.66;5095546;28;20003;-68
2021/12/12 03:20:54;;;;;;;;;;;;;;;3.01;86.05;97599.88;5096848;28;20384;-68
2021/12/12 03:23:19;;;;;;;;;;;;;;;3.02;85.53;97599.69;5096769;28;20387;-68
2021/12/12 03:25:47;;;;;;;;;;;;;;;3.00;84.64;97590.47;5096942;28;19916;-68
2021/12/12 03:28:14;;;;;;;;;;;;;;;2.91;84.58;97593.03;5096733;28;19915;-68
2021/12/12 03:30:41;;;;;;;;;;;;;;;2.88;84.18;97590.78;5096529;28;19916;-68
2021/12/12 03:33:07;;;;;;;;;;;;;;;2.78;85.46;97592.69;5096439;28;20003;-73
2021/12/12 03:35:33;;;;;;;;;;;;;;;2.79;84.66;97596.88;5095978;28;19916;-68
2021/12/12 03:37:58;;;;;;;;;;;;;;;2.73;84.27;97587.16;5087886;28;19916;-68
2021/12/12 03:40:29;;;;;;;;;;;;;;;2.65;84.50;97592.31;5092061;28;19969;-68
2021/12/12 03:42:57;;;;;;;;;;;;;;;2.44;85.12;97591.91;5095981;28;19916;-68
2021/12/12 03:45:22;;;;;;;;;;;;;;;2.35;86.23;97603.19;5096460;28;19923;-68
2021/12/12 03:47:54;;;;;;;;;;;;;;;2.40;85.39;97608.69;5096346;28;20357;-68
2021/12/12 03:50:23;;;;;;;;;;;;;;;2.24;86.03;97616.38;5080054;28;20285;-68
2021/12/12 03:52:49;;;;;;;;;;;;;;;2.24;86.75;97621.56;5094233;28;19916;-68
2021/12/12 03:55:15;;;;;;;;;;;;;;;2.36;86.24;97621.13;5105903;28;20277;-68
2021/12/12 03:57:40;;;;;;;;;;;;;;;2.43;86.18;97619.56;5094217;28;20002;-68
2021/12/12 04:00:08;;;;;;;;;;;;;;;2.47;85.81;97617.47;5095819;28;19923;-69
2021/12/12 04:02:33;;;;;;;;;;;;;;;2.55;84.98;97614.13;5095965;28;20365;-69
2021/12/12 04:04:59;;;;;;;;;;;;;;;2.50;86.33;97619.75;5096322;28;19978;-68
2021/12/12 04:07:27;;;;;;;;;;;;;;;2.37;86.84;97614.19;5096161;28;19916;-68
2021/12/12 04:09:53;;;;;;;;;;;;;;;2.38;86.69;97621.00;5095712;28;19923;-68
2021/12/12 04:12:18;;;;;;;;;;;;;;;2.48;87.30;97621.69;5096193;28;19962;-68
2021/12/12 04:14:44;;;;;;;;;;;;;;;2.39;88.10;97622.63;5092686;28;20323;-68
2021/12/12 04:17:13;;;;;;;;;;;;;;;2.43;87.08;97606.63;5095758;28;19916;-68
2021/12/12 04:19:39;;;;;;;;;;;;;;;2.31;87.97;97615.63;5094782;28;19916;-68
2021/12/12 04:22:04;;;;;;;;;;;;;;;2.16;89.03;97614.56;5095915;28;20015;-68
2021/12/12 04:24:32;;;;;;;;;;;;;;;2.04;89.71;97623.56;5082118;28;20435;-68
2021/12/12 04:26:57;;;;;;;;;;;;;;;2.04;89.47;97624.38;5091185;28;19959;-68
2021/12/12 04:29:25;;;;;;;;;;;;;;;1.89;89.70;97620.72;5096161;28;19951;-68
2021/12/12 04:31:55;;;;;;;;;;;;;;;1.83;90.39;97623.91;5095696;28;19963;-68
2021/12/12 04:34:23;;;;;;;;;;;;;;;1.80;90.69;97625.97;5095298;28;20023;-69
2021/12/12 04:36:48;;;;;;;;;;;;;;;1.70;91.95;97633.00;5095569;28;19974;-69
2021/12/12 04:39:15;;;;;;;;;;;;;;;1.58;92.41;97635.81;5095008;28;20353;-68
2021/12/12 04:41:42;;;;;;;;;;;;;;;1.49;91.93;97639.31;5095445;28;19963;-67
2021/12/12 04:44:07;;;;;;;;;;;;;;;1.53;92.02;97635.47;5095238;28;19920;-68
2021/12/12 04:49:55;;;;;;;;;;;;;;;1.48;92.88;97636.88;5095349;28;20261;-68
2021/12/12 04:52:08;;;;;;;;;;;;;;;1.47;92.91;97648.16;5094729;28;19934;-67
2021/12/12 04:54:38;;;;;;;;;;;;;;;1.42;92.29;97653.75;5095324;28;19923;-68
2021/12/12 04:57:07;;;;;;;;;;;;;;;1.38;92.76;97647.28;5095051;28;19916;-68
2021/12/12 04:59:32;;;;;;;;;;;;;;;1.42;92.18;97648.59;5094616;28;20053;-68
2021/12/12 05:02:30;;;;;;;;;;;;;;;1.45;92.33;97652.66;5083915;28;20014;-67
2021/12/12 05:04:58;;;;;;;;;;;;;;;1.37;92.96;97643.06;5040993;28;19951;-68
2021/12/12 05:07:29;;;;;;;;;;;;;;;1.36;93.01;97654.34;5094510;28;19959;-68
2021/12/12 05:09:59;;;;;;;;;;;;;;;1.30;93.09;97657.50;5078210;28;19915;-68
2021/12/12 05:12:33;;;;;;;;;;;;;;;1.33;93.04;97656.44;5090247;28;20328;-67
2021/12/12 05:15:05;;;;;;;;;;;;;;;1.34;92.52;97651.09;5089607;28;20007;-68
2021/12/12 05:17:42;;;;;;;;;;;;;;;1.22;94.04;97649.72;5094314;28;19916;-69
2021/12/12 05:20:11;;;;;;;;;;;;;;;1.29;93.21;97649.91;5081837;28;19916;-68
2021/12/12 05:22:42;;;;;;;;;;;;;;;1.43;92.65;97655.38;5094528;28;19988;-68
2021/12/12 05:25:10;;;;;;;;;;;;;;;1.42;93.07;97653.75;5094081;28;19916;-68
2021/12/12 05:27:37;;;;;;;;;;;;;;;1.44;92.63;97656.22;5094179;28;20424;-68
2021/12/12 05:30:22;;;;;;;;;;;;;;;1.43;91.85;97649.41;5094783;28;20284;-68
2021/12/12 05:32:48;;;;;;;;;;;;;;;1.43;92.43;97652.81;5082627;28;19923;-68
2021/12/12 05:35:14;;;;;;;;;;;;;;;1.39;92.90;97653.25;5093162;28;19920;-68
2021/12/12 05:37:40;;;;;;;;;;;;;;;1.47;92.16;97658.47;5094152;28;19916;-68
2021/12/12 05:40:09;;;;;;;;;;;;;;;1.45;91.88;97653.44;5096151;28;19917;-68
2021/12/12 05:42:35;;;;;;;;;;;;;;;1.31;92.17;97650.59;5091729;28;19916;-68
2021/12/12 05:45:01;;;;;;;;;;;;;;;1.41;92.14;97654.72;5094114;28;19916;-70
2021/12/12 05:47:27;;;;;;;;;;;;;;;1.29;92.55;97657.66;5084020;28;20357;-68
2021/12/12 05:49:52;;;;;;;;;;;;;;;1.34;92.02;97655.47;5073050;28;19916;-68
2021/12/12 05:52:18;;;;;;;;;;;;;;;1.34;91.80;97660.63;5089091;28;20364;-68
2021/12/12 05:54:45;;;;;;;;;;;;;;;1.40;91.43;97655.66;5093645;28;19915;-69
2021/12/12 05:57:10;;;;;;;;;;;;;;;1.35;91.29;97660.47;5093819;28;19916;-68
2021/12/12 05:59:37;;;;;;;;;;;;;;;1.29;91.58;97655.06;5093375;28;19969;-70
2021/12/12 06:02:05;;;;;;;;;;;;;;;1.24;91.26;97658.09;5093328;28;19920;-68
2021/12/12 06:04:30;;;;;;;;;;;;;;;1.39;91.22;97659.25;5093755;28;20364;-68
2021/12/12 06:06:55;;;;;;;;;;;;;;;1.36;90.66;97654.34;5093756;28;19923;-68
2021/12/12 06:09:21;;;;;;;;;;;;;;;1.32;90.86;97659.97;5093472;28;19994;-70
2021/12/12 06:11:49;;;;;;;;;;;;;;;1.35;91.16;97663.06;5092172;28;20069;-68
2021/12/12 06:14:15;;;;;;;;;;;;;;;1.34;91.16;97664.00;5085728;28;19917;-68
2021/12/12 06:16:41;;;;;;;;;;;;;;;1.34;91.34;97664.00;5083906;28;19923;-68
2021/12/12 06:19:17;;;;;;;;;;;;;;;1.13;92.23;97669.44;5093634;28;19919;-68
2021/12/12 06:21:42;;;;;;;;;;;;;;;1.15;93.23;97670.13;5093669;28;20022;-68
2021/12/12 06:24:08;;;;;;;;;;;;;;;1.10;92.72;97668.94;5093956;28;20010;-68
2021/12/12 06:26:33;;;;;;;;;;;;;;;1.17;92.39;97672.56;5093520;28;20003;-69
2021/12/12 06:28:59;;;;;;;;;;;;;;;1.10;93.17;97676.69;5093823;28;19916;-69
2021/12/12 06:31:24;;;;;;;;;;;;;;;0.95;94.47;97691.03;5075392;28;20007;-69
2021/12/12 06:33:49;;;;;;;;;;;;;;;1.18;93.22;97689.66;5093452;28;19916;-69
2021/12/12 06:36:15;;;;;;;;;;;;;;;1.07;93.80;97685.53;5093659;28;19915;-68
2021/12/12 06:38:43;;;;;;;;;;;;;;;1.03;93.99;97685.97;5092862;28;19919;-68
2021/12/12 06:41:09;;;;;;;;;;;;;;;0.97;94.12;97684.75;5093095;28;20422;-68
2021/12/12 06:43:35;;;;;;;;;;;;;;;0.91;94.48;97687.09;5093123;28;19988;-68
2021/12/12 06:46:02;;;;;;;;;;;;;;;0.78;95.99;97679.72;5093294;28;19916;-69
2021/12/12 06:48:28;;;;;;;;;;;;;;;0.86;95.49;97694.47;5093296;28;19923;-68
2021/12/12 06:50:54;;;;;;;;;;;;;;;0.91;95.36;97700.00;5095654;28;19998;-68
2021/12/12 06:53:21;;;;;;;;;;;;;;;0.94;95.30;97700.56;5097502;28;19923;-68
2021/12/12 06:55:47;;;;;;;;;;;;;;;0.92;94.77;97699.88;5097549;28;19943;-69
2021/12/12 06:58:13;;;;;;;;;;;;;;;0.95;95.51;97709.09;5097292;28;19916;-69
2021/12/12 07:00:40;;;;;;;;;;;;;;;0.85;96.28;97711.72;5097097;28;19916;-69
2021/12/12 07:03:05;;;;;;;;;;;;;;;0.86;96.10;97715.09;5096832;28;20406;-69
2021/12/12 07:05:31;;;;;;;;;;;;;;;0.90;95.75;97713.84;5096483;28;19916;-71
2021/12/12 07:07:57;;;;;;;;;;;;;;;0.89;96.46;97715.66;5096777;28;19974;-69
2021/12/12 07:10:24;;;;;;;;;;;;;;;0.79;96.66;97715.69;5096113;28;19916;-69
2021/12/12 07:12:55;;;;;;;;;;;;;;;0.82;97.31;97719.75;5089922;28;19916;-69
2021/12/12 07:15:20;;;;;;;;;;;;;;;0.86;97.02;97707.38;5096731;28;19916;-69
2021/12/12 07:17:46;;;;;;;;;;;;;;;0.95;96.74;97714.28;5095322;28;20387;-69
2021/12/12 07:20:13;;;;;;;;;;;;;;;0.95;96.72;97717.63;5096870;28;20433;-69
2021/12/12 07:22:38;;;;;;;;;;;;;;;0.93;96.42;97714.41;5096384;28;20347;-71
2021/12/12 07:25:06;;;;;;;;;;;;;;;1.21;94.58;97707.47;5095875;28;19955;-69
2021/12/12 07:27:32;;;;;;;;;;;;;;;1.22;95.30;97714.25;5096811;28;19916;-69
2021/12/12 07:29:57;;;;;;;;;;;;;;;1.27;94.89;97711.22;5084207;28;20002;-70
2021/12/12 07:32:24;;;;;;;;;;;;;;;1.25;94.92;97721.69;5091244;28;19920;-69
2021/12/12 07:34:50;;;;;;;;;;;;;;;1.26;95.05;97715.59;5096606;28;20011;-69
2021/12/12 07:37:15;;;;;;;;;;;;;;;1.37;94.58;97712.78;5097095;28;20005;-67
2021/12/12 07:39:41;;;;;;;;;;;;;;;1.39;94.23;97720.41;5096077;28;19924;-67
2021/12/12 07:42:07;;;;;;;;;;;;;;;1.45;93.31;97720.59;5096497;28;19919;-68
2021/12/12 07:44:35;;;;;;;;;;;;;;;1.55;92.69;97717.97;5096278;28;19927;-68
2021/12/12 07:47:01;;;;;;;;;;;;;;;1.62;91.63;97719.00;5096470;28;19924;-68
2021/12/12 07:49:28;;;;;;;;;;;;;;;1.74;91.39;97717.81;5096015;28;20307;-68
2021/12/12 07:51:54;;;;;;;;;;;;;;;1.81;90.21;97721.44;5090985;28;19916;-67
2021/12/12 07:54:19;;;;;;;;;;;;;;;1.65;91.17;97727.28;5083984;28;20003;-67
2021/12/12 07:56:45;;;;;;;;;;;;;;;2.19;95.21;97717.69;5096377;28;19959;-69
2021/12/12 07:59:10;;;;;;;;;;;;;;;3.15;93.44;97713.19;5095736;28;19916;-67
2021/12/12 08:01:37;;;;;;;;;;;;;;;2.69;85.27;97714.44;5095982;28;20128;-68
2021/12/12 08:04:03;;;;;;;;;;;;;;;2.60;85.29;97715.38;5096165;28;19916;-67
2021/12/12 08:06:29;;;;;;;;;;;;;;;2.33;86.46;97713.75;5095994;28;19923;-68
2021/12/12 08:08:55;;;;;;;;;;;;;;;2.34;85.87;97707.63;5095958;28;19919;-67
2021/12/12 08:11:23;;;;;;;;;;;;;;;2.46;85.71;97703.78;5095076;28;19947;-66
2021/12/12 08:13:48;;;;;;;;;;;;;;;2.25;86.31;97711.91;5095462;28;19922;-67
2021/12/12 08:16:15;;;;;;;;;;;;;;;2.35;86.99;97709.22;5095558;28;19915;-67
2021/12/12 08:18:41;;;;;;;;;;;;;;;2.24;86.07;97705.13;5095645;28;19916;-69
2021/12/12 08:21:06;;;;;;;;;;;;;;;2.48;85.27;97714.81;5092756;28;19916;-69
2021/12/12 08:23:32;;;;;;;;;;;;;;;2.74;84.99;97723.34;5095401;28;19999;-70
2021/12/12 08:25:57;;;;;;;;;;;;;;;2.74;84.65;97733.72;5095411;28;19916;-68
2021/12/12 08:28:23;;;;;;;;;;;;;;;2.83;84.01;97726.81;5095422;28;19916;-68
2021/12/12 08:30:49;;;;;;;;;;;;;;;3.09;82.54;97727.56;5093990;28;19971;-67
2021/12/12 08:33:14;;;;;;;;;;;;;;;2.96;82.76;97718.59;5095063;28;20376;-67
2021/12/12 08:35:41;;;;;;;;;;;;;;;2.92;81.69;97723.28;5095130;28;19916;-67
2021/12/12 08:38:07;;;;;;;;;;;;;;;2.71;83.26;97721.09;5095551;28;19962;-67
2021/12/12 08:40:35;;;;;;;;;;;;;;;3.01;81.86;97724.94;5095847;28;19916;-66
2021/12/12 08:43:01;;;;;;;;;;;;;;;2.91;82.11;97719.88;5095189;28;19916;-67
2021/12/12 08:45:29;;;;;;;;;;;;;;;2.92;81.64;97715.53;5095371;28;19927;-66
2021/12/12 08:47:55;;;;;;;;;;;;;;;2.69;82.47;97727.38;5095217;28;19916;-66
2021/12/12 08:50:23;;;;;;;;;;;;;;;2.93;81.99;97723.13;5095398;28;20261;-67
2021/12/12 08:52:49;;;;;;;;;;;;;;;2.65;82.22;97726.06;5093237;28;19916;-67
2021/12/12 08:55:19;;;;;;;;;;;;;;;2.38;84.47;97722.69;5094020;28;19915;-70
2021/12/12 08:57:59;;;;;;;;;;;;;;;2.69;83.52;97735.13;5094841;28;19916;-68
2021/12/12 09:00:26;;;;;;;;;;;;;;;2.82;83.29;97725.19;5094328;28;19993;-67
2021/12/12 09:02:52;;;;;;;;;;;;;;;3.00;81.58;97733.69;5095095;28;19930;-68
2021/12/12 09:05:20;;;;;;;;;;;;;;;2.87;81.59;97733.31;5094250;28;19912;-66
2021/12/12 09:07:47;;;;;;;;;;;;;;;3.00;81.75;97728.50;5094359;28;19953;-67
2021/12/12 09:10:16;;;;;;;;;;;;;;;2.89;81.41;97729.59;5092518;28;20003;-69
2021/12/12 09:12:45;;;;;;;;;;;;;;;2.93;80.74;97728.31;5093731;28;19924;-66
2021/12/12 09:15:10;;;;;;;;;;;;;;;2.80;81.98;97732.28;5094553;28;19922;-66
2021/12/12 09:17:48;;;;;;;;;;;;;;;2.59;82.68;97734.44;5094740;28;20003;-66
2021/12/12 09:20:26;;;;;;;;;;;;;;;2.76;82.49;97739.56;5078767;28;19920;-67
2021/12/12 09:22:59;;;;;;;;;;;;;;;2.78;82.34;97735.06;5094409;28;20524;-67
2021/12/12 09:25:39;;;;;;;;;;;;;;;3.00;81.30;97741.47;5093634;28;19919;-67
2021/12/12 09:28:04;;;;;;;;;;;;;;;3.04;80.96;97736.78;5094025;28;19923;-68
2021/12/12 09:30:30;;;;;;;;;;;;;;;3.08;80.37;97733.72;5093144;28;19916;-67
2021/12/12 09:33:17;;;;;;;;;;;;;;;3.17;80.38;97732.78;5093234;28;19920;-67
2021/12/12 09:35:45;;;;;;;;;;;;;;;2.89;80.47;97726.19;5091323;28;19982;-66
2021/12/12 09:38:30;;;;;;;;;;;;;;;2.77;81.75;97724.84;5093941;28;19918;-66
2021/12/12 09:41:17;;;;;;;;;;;;;;;2.77;82.96;97722.25;5094442;28;19923;-66
2021/12/12 09:43:59;;;;;;;;;;;;;;;2.90;83.26;97722.63;5093493;28;20002;-66
2021/12/12 09:46:39;;;;;;;;;;;;;;;2.88;82.87;97719.41;5094305;28;20296;-66
2021/12/12 09:52:16;;;;;;;;;;;;;;;3.10;80.58;97728.38;5093862;28;19939;-66
2021/12/12 09:54:58;;;;;;;;;;;;;;;3.17;80.44;97717.25;5094437;28;19912;-66
2021/12/12 09:57:37;;;;;;;;;;;;;;;3.21;80.50;97723.72;5094862;28;19912;-66
2021/12/12 10:00:08;;;;;;;;;;;;;;;3.49;80.12;97728.66;5094284;28;19916;-66
2021/12/12 10:02:36;;;;;;;;;;;;;;;3.70;79.53;97719.47;5093490;28;19934;-66
2021/12/12 10:05:13;;;;;;;;;;;;;;;3.88;78.69;97723.69;5093106;28;20395;-66
2021/12/12 10:13:01;;;;;;;;;;;;;;;4.19;76.64;97709.09;5004139;28;20281;-66
2021/12/12 10:15:28;;;;;;;;;;;;;;;4.19;76.35;97704.72;5033425;28;19921;-65
2021/12/12 10:17:57;;;;;;;;;;;;;;;4.01;76.46;97704.06;5033245;28;19991;-65
2021/12/12 10:20:26;;;;;;;;;;;;;;;4.14;75.88;97696.63;5033614;28;19940;-65
2021/12/12 10:23:06;;;;;;;;;;;;;;;4.06;76.00;97695.81;5031297;28;19921;-65
2021/12/12 10:25:35;;;;;;;;;;;;;;;4.09;75.80;97705.84;5032119;28;20292;-67
2021/12/12 10:28:14;;;;;;;;;;;;;;;4.19;75.39;97703.91;5033099;28;19917;-66
2021/12/12 10:30:43;;;;;;;;;;;;;;;4.12;75.72;97698.56;5032824;28;20355;-65
2021/12/12 10:33:16;;;;;;;;;;;;;;;4.28;74.80;97704.72;5028300;28;19918;-67
2021/12/12 10:35:52;;;;;;;;;;;;;;;4.38;74.27;97703.56;5011521;28;19940;-66
2021/12/12 10:38:20;;;;;;;;;;;;;;;4.52;74.10;97689.91;5007272;28;19923;-66
2021/12/12 10:41:04;;;;;;;;;;;;;;;4.45;73.48;97695.94;5032361;28;20003;-65
2021/12/12 10:43:59;;;;;;;;;;;;;;;4.49;73.76;97699.81;5025421;28;19971;-65
2021/12/12 10:46:44;;;;;;;;;;;;;;;4.66;72.17;97700.59;5004422;28;20131;-67
2021/12/12 10:49:17;;;;;;;;;;;;;;;4.62;72.42;97702.72;4988481;28;19921;-67
2021/12/12 10:51:47;;;;;;;;;;;;;;;4.71;71.67;97695.69;5011524;28;19924;-67
2021/12/12 10:54:27;;;;;;;;;;;;;;;4.76;71.41;97696.81;5013233;28;19971;-67
2021/12/12 10:57:12;;;;;;;;;;;;;;;4.79;70.75;97704.25;5032704;28;20001;-69
2021/12/12 10:59:48;;;;;;;;;;;;;;;4.98;69.75;97709.06;5026884;28;19921;-68
2021/12/12 11:02:16;;;;;;;;;;;;;;;4.96;70.02;97705.00;5013444;28;19980;-67
2021/12/12 11:04:51;;;;;;;;;;;;;;;4.88;70.42;97697.25;5007698;28;20408;-70
2021/12/12 11:07:16;;;;;;;;;;;;;;;5.11;69.45;97705.13;5010703;28;20004;-71
2021/12/12 11:09:56;;;;;;;;;;;;;;;5.18;69.04;97701.69;5013662;28;19972;-69
2021/12/12 11:12:29;;;;;;;;;;;;;;;5.28;68.24;97686.69;5012760;28;19924;-69
2021/12/12 11:15:12;;;;;;;;;;;;;;;5.31;68.13;97683.75;5011772;28;20277;-69
2021/12/12 11:17:48;;;;;;;;;;;;;;;5.07;69.00;97694.25;5011639;28;19972;-69
2021/12/12 11:20:13;;;;;;;;;;;;;;;5.24;68.58;97688.00;5028334;28;19918;-69
2021/12/12 11:22:42;;;;;;;;;;;;;;;5.06;68.77;97690.06;5012273;28;19924;-69
2021/12/12 11:25:10;;;;;;;;;;;;;;;5.28;68.61;97680.69;5004486;28;20390;-69
2021/12/12 11:27:39;;;;;;;;;;;;;;;5.39;68.26;97682.91;5013356;28;19988;-69
2021/12/12 11:30:10;;;;;;;;;;;;;;;5.14;68.64;97689.19;5007636;28;20106;-69
2021/12/12 11:32:36;;;;;;;;;;;;;;;5.27;68.39;97677.28;5019152;28;19950;-69
2021/12/12 11:35:04;;;;;;;;;;;;;;;5.29;67.31;97679.72;4993622;28;20356;-70
2021/12/12 11:37:51;;;;;;;;;;;;;;;5.25;67.23;97671.44;5011173;28;19944;-70
2021/12/12 11:40:26;;;;;;;;;;;;;;;5.18;67.51;97672.31;5021990;28;19968;-69
2021/12/12 11:43:17;;;;;;;;;;;;;;;5.40;66.85;97672.34;5017764;28;19946;-69
2021/12/12 11:45:44;;;;;;;;;;;;;;;5.45;66.41;97666.63;5036481;28;20292;-70
2021/12/12 11:48:16;;;;;;;;;;;;;;;5.53;65.92;97666.53;5035549;28;19917;-68
2021/12/12 11:50:46;;;;;;;;;;;;;;;5.52;65.89;97669.34;5036239;28;19916;-71
2021/12/12 11:53:44;;;;;;;;;;;;;;;5.53;66.37;97666.53;5034580;28;19927;-68
2021/12/12 11:56:18;;;;;;;;;;;;;;;5.62;66.41;97673.31;5012440;28;20009;-68
2021/12/12 11:59:02;;;;;;;;;;;;;;;5.67;66.11;97658.00;5016098;28;20019;-68
2021/12/12 12:01:32;;;;;;;;;;;;;;;5.82;66.36;97664.06;5007554;28;19968;-77
2021/12/12 12:04:30;;;;;;;;;;;;;;;5.65;65.55;97661.75;5025153;28;20028;-71
2021/12/12 12:06:56;;;;;;;;;;;;;;;5.77;65.55;97655.97;4991727;28;19921;-66
2021/12/12 12:09:34;;;;;;;;;;;;;;;5.75;65.64;97659.72;5017451;28;19939;-63
2021/12/12 12:12:06;;;;;;;;;;;;;;;5.74;66.23;97660.72;5028445;28;19917;-69
2021/12/12 12:14:50;;;;;;;;;;;;;;;5.94;65.60;97650.66;5028876;28;20054;-70
2021/12/12 12:17:21;;;;;;;;;;;;;;;6.05;64.90;97645.84;5000952;28;19918;-71
2021/12/12 12:20:05;;;;;;;;;;;;;;;5.82;65.17;97650.25;5016051;28;19920;-68
2021/12/12 12:22:37;;;;;;;;;;;;;;;5.82;64.97;97647.66;5006102;28;20429;-69
2021/12/12 12:25:16;;;;;;;;;;;;;;;5.91;64.09;97643.22;5012620;28;19983;-72
2021/12/12 12:27:45;;;;;;;;;;;;;;;6.04;65.18;97641.63;5013881;28;19917;-70
2021/12/12 12:30:29;;;;;;;;;;;;;;;6.12;64.50;97646.78;5021307;28;20324;-70
2021/12/12 12:33:09;;;;;;;;;;;;;;;6.21;64.05;97640.50;5010049;28;20405;-69
2021/12/12 12:35:46;;;;;;;;;;;;;;;5.86;64.90;97643.69;5017442;28;19917;-70
2021/12/12 12:38:27;;;;;;;;;;;;;;;5.97;64.09;97639.91;5011153;28;19917;-69
2021/12/12 12:41:10;;;;;;;;;;;;;;;5.79;64.01;97640.19;5012586;28;19963;-69
2021/12/12 12:43:51;;;;;;;;;;;;;;;5.86;63.87;97638.50;5013612;28;19944;-69
2021/12/12 12:46:19;;;;;;;;;;;;;;;5.83;64.09;97641.47;5008741;28;19917;-69
2021/12/12 12:49:03;;;;;;;;;;;;;;;5.95;63.85;97649.69;5006379;28;19963;-69
2021/12/12 12:51:41;;;;;;;;;;;;;;;5.94;63.97;97648.88;5010093;28;20258;-69
2021/12/12 12:54:25;;;;;;;;;;;;;;;5.85;63.76;97644.72;4999328;28;20004;-71
2021/12/12 12:57:09;;;;;;;;;;;;;;;5.91;64.27;97645.81;5029224;28;19921;-69
2021/12/12 12:59:50;;;;;;;;;;;;;;;6.12;63.58;97631.16;5028262;28;19929;-69
2021/12/12 13:02:15;;;;;;;;;;;;;;;6.02;64.28;97632.41;5013207;28;19917;-71
2021/12/12 13:04:59;;;;;;;;;;;;;;;5.87;64.32;97627.13;5034049;28;19913;-69
2021/12/12 13:07:47;;;;;;;;;;;;;;;5.98;64.51;97624.13;5022756;28;20007;-69
2021/12/12 13:10:17;;;;;;;;;;;;;;;6.09;64.48;97628.88;5007346;28;20429;-69
2021/12/12 13:13:00;;;;;;;;;;;;;;;6.09;64.44;97628.06;5008102;28;20012;-65
2021/12/12 13:15:40;;;;;;;;;;;;;;;6.06;64.18;97616.25;5032027;28;19924;-68
2021/12/12 13:18:18;;;;;;;;;;;;;;;6.25;63.92;97614.91;5029909;28;19940;-66
2021/12/12 13:21:03;;;;;;;;;;;;;;;6.08;64.15;97614.25;5014070;28;20007;-67
2021/12/12 13:23:47;;;;;;;;;;;;;;;6.14;64.44;97608.34;5014449;28;20266;-68
2021/12/12 13:26:26;;;;;;;;;;;;;;;6.20;64.53;97607.63;5023587;28;19921;-71
2021/12/12 13:29:16;;;;;;;;;;;;;;;6.31;63.60;97614.19;5026301;28;19917;-66
2021/12/12 13:31:50;;;;;;;;;;;;;;;6.31;63.09;97611.59;5004619;28;19983;-68
2021/12/12 13:34:19;;;;;;;;;;;;;;;6.22;62.67;97616.09;5015554;28;19991;-65
2021/12/12 13:36:50;;;;;;;;;;;;;;;6.20;62.09;97615.44;5031506;28;19924;-66